createdAt,value
2019-03-11T00:00:16.896Z,4.90
2019-03-11T00:02:45.432Z,5.37
2019-03-11T00:05:14.085Z,5.77
2019-03-11T00:07:42.618Z,6.27
2019-03-11T00:10:11.305Z,6.27
2019-03-11T00:12:41.489Z,7.23
2019-03-11T00:15:10.165Z,7.60
2019-03-11T00:17:38.646Z,8.10
2019-03-11T00:20:09.228Z,8.33
2019-03-11T00:22:37.793Z,9.23
2019-03-11T00:25:07.303Z,9.77
2019-03-11T00:27:35.907Z,9.03
2019-03-11T00:30:07.533Z,9.60
2019-03-11T00:32:36.075Z,10.47
2019-03-11T00:35:05.662Z,10.20
2019-03-11T00:37:34.203Z,11.33
2019-03-11T00:40:02.916Z,9.63
2019-03-11T00:42:31.381Z,10.47
2019-03-11T00:44:59.997Z,10.57
2019-03-11T00:47:28.555Z,10.83
2019-03-11T00:49:57.117Z,11.13
2019-03-11T00:52:25.685Z,11.40
2019-03-11T00:54:54.229Z,10.93
2019-03-11T00:57:22.841Z,11.40
2019-03-11T00:59:51.390Z,11.37
2019-03-11T01:02:20.186Z,10.43
2019-03-11T01:04:48.812Z,11.17
2019-03-11T01:07:17.281Z,8.93
2019-03-11T01:09:45.874Z,9.80
2019-03-11T01:12:14.489Z,10.20
2019-03-11T01:14:43.021Z,9.13
2019-03-11T01:17:11.572Z,9.50
2019-03-11T01:19:40.191Z,9.13
2019-03-11T01:22:08.820Z,8.90
2019-03-11T01:24:37.361Z,8.57
2019-03-11T01:27:06.038Z,8.83
2019-03-11T01:29:34.513Z,8.40
2019-03-11T01:32:04.113Z,7.80
2019-03-11T01:34:32.662Z,7.47
2019-03-11T01:37:01.196Z,8.03
2019-03-11T01:39:29.793Z,7.77
2019-03-11T01:41:58.330Z,7.27
2019-03-11T01:44:26.868Z,7.07
2019-03-11T01:46:55.377Z,7.33
2019-03-11T01:49:24.130Z,7.00
2019-03-11T01:51:52.677Z,7.33
2019-03-11T01:54:21.176Z,7.43
2019-03-11T01:56:49.640Z,6.93
2019-03-11T01:59:18.113Z,7.67
2019-03-11T02:01:48.465Z,7.43
2019-03-11T02:04:16.935Z,7.20
2019-03-11T02:06:45.493Z,6.63
2019-03-11T02:09:14.117Z,7.27
2019-03-11T02:11:42.735Z,6.37
2019-03-11T02:14:12.609Z,6.67
2019-03-11T02:16:41.073Z,6.37
2019-03-11T02:19:09.609Z,6.80
2019-03-11T02:21:38.113Z,6.73
2019-03-11T02:24:06.781Z,6.27
2019-03-11T02:26:35.325Z,7.10
2019-03-11T02:29:03.897Z,7.10
2019-03-11T02:31:32.426Z,6.93
2019-03-11T02:34:00.961Z,7.40
2019-03-11T02:36:29.658Z,6.90
2019-03-11T02:38:58.305Z,6.73
2019-03-11T02:41:26.906Z,7.87
2019-03-11T02:43:55.558Z,7.63
2019-03-11T02:46:24.108Z,7.77
2019-03-11T02:48:52.638Z,7.37
2019-03-11T02:51:21.203Z,7.57
2019-03-11T02:53:49.749Z,7.27
2019-03-11T02:56:18.358Z,6.63
2019-03-11T02:58:46.943Z,7.70
2019-03-11T03:01:20.097Z,7.53
2019-03-11T03:03:59.106Z,9.97
2019-03-11T03:06:27.716Z,8.70
2019-03-11T03:08:56.183Z,9.23
2019-03-11T03:11:24.752Z,8.53
2019-03-11T03:13:53.218Z,7.80
2019-03-11T03:16:21.689Z,8.90
2019-03-11T03:18:50.193Z,9.03
2019-03-11T03:21:20.374Z,8.63
2019-03-11T03:23:48.909Z,9.00
2019-03-11T03:26:17.484Z,10.10
2019-03-11T03:28:46.027Z,8.47
2019-03-11T03:31:14.628Z,9.07
2019-03-11T03:33:43.269Z,8.97
2019-03-11T03:36:11.813Z,9.17
2019-03-11T03:38:40.971Z,9.10
2019-03-11T03:41:09.855Z,8.17
2019-03-11T03:43:38.467Z,8.63
2019-03-11T03:46:18.032Z,8.80
2019-03-11T03:48:39.229Z,8.97
2019-03-11T03:51:08.047Z,8.90
2019-03-11T03:53:36.582Z,8.90
2019-03-11T03:56:05.237Z,8.83
2019-03-11T03:58:33.908Z,9.17
2019-03-11T04:01:02.465Z,10.27
2019-03-11T04:03:31.018Z,9.63
2019-03-11T04:05:59.633Z,9.17
2019-03-11T04:08:28.166Z,8.20
2019-03-11T04:10:56.882Z,9.17
2019-03-11T04:13:25.422Z,10.83
2019-03-11T04:15:54.135Z,9.43
2019-03-11T04:18:23.251Z,10.77
2019-03-11T04:20:51.928Z,9.83
2019-03-11T04:23:20.537Z,9.87
2019-03-11T04:25:49.241Z,10.13
2019-03-11T04:28:17.922Z,10.07
2019-03-11T04:30:46.538Z,11.43
2019-03-11T04:33:15.147Z,10.37
2019-03-11T04:35:43.757Z,10.80
2019-03-11T04:38:12.301Z,9.60
2019-03-11T04:40:42.253Z,9.73
2019-03-11T04:43:10.717Z,9.33
2019-03-11T04:45:39.253Z,9.30
2019-03-11T04:48:07.971Z,9.90
2019-03-11T04:50:36.573Z,8.63
2019-03-11T04:53:05.125Z,9.40
2019-03-11T04:55:33.766Z,8.97
2019-03-11T04:58:02.306Z,9.63
2019-03-11T05:00:32.289Z,9.43
2019-03-11T05:03:01.016Z,9.50
2019-03-11T05:05:29.621Z,10.73
2019-03-11T05:07:58.085Z,8.63
2019-03-11T05:10:26.731Z,8.43
2019-03-11T05:12:55.335Z,8.47
2019-03-11T05:15:23.802Z,7.97
2019-03-11T05:17:53.730Z,10.40
2019-03-11T05:20:22.805Z,9.03
2019-03-11T05:22:51.337Z,9.90
2019-03-11T05:25:19.911Z,8.83
2019-03-11T05:27:48.515Z,8.03
2019-03-11T05:30:18.413Z,8.80
2019-03-11T05:32:47.036Z,9.20
2019-03-11T05:35:15.645Z,9.50
2019-03-11T05:37:45.521Z,8.87
2019-03-11T05:40:17.907Z,9.67
2019-03-11T05:42:46.507Z,8.70
2019-03-11T05:45:17.261Z,10.13
2019-03-11T05:47:46.002Z,11.47
2019-03-11T05:50:15.658Z,10.90
2019-03-11T05:52:44.391Z,10.30
2019-03-11T05:55:13.899Z,8.80
2019-03-11T05:57:42.686Z,10.30
2019-03-11T06:00:20.753Z,9.03
2019-03-11T06:02:49.375Z,10.10
2019-03-11T06:05:17.983Z,7.40
2019-03-11T06:07:46.566Z,7.07
2019-03-11T06:10:15.575Z,7.30
2019-03-11T06:12:44.185Z,7.83
2019-03-11T06:15:14.016Z,7.10
2019-03-11T06:17:42.829Z,8.00
2019-03-11T06:20:20.300Z,7.27
2019-03-11T06:22:48.833Z,7.33
2019-03-11T06:25:17.459Z,6.93
2019-03-11T06:27:46.060Z,7.93
2019-03-11T06:30:15.009Z,6.90
2019-03-11T06:32:43.506Z,7.23
2019-03-11T06:35:12.109Z,7.17
2019-03-11T06:37:40.721Z,7.57
2019-03-11T06:40:10.741Z,7.87
2019-03-11T06:42:39.341Z,7.43
2019-03-11T06:45:10.285Z,7.00
2019-03-11T06:47:38.986Z,7.73
2019-03-11T06:50:12.659Z,6.77
2019-03-11T06:52:41.270Z,7.47
2019-03-11T06:55:11.223Z,6.57
2019-03-11T06:57:39.829Z,6.63
2019-03-11T07:00:13.884Z,6.60
2019-03-11T07:02:42.401Z,7.37
2019-03-11T07:05:19.273Z,7.17
2019-03-11T07:07:41.270Z,6.57
2019-03-11T07:10:12.054Z,7.40
2019-03-11T07:12:40.729Z,10.77
2019-03-11T07:15:11.010Z,8.20
2019-03-11T07:17:39.562Z,11.27
2019-03-11T07:20:14.073Z,10.17
2019-03-11T07:22:42.607Z,9.10
2019-03-11T07:25:11.289Z,6.57
2019-03-11T07:27:39.926Z,6.60
2019-03-11T07:30:11.571Z,7.87
2019-03-11T07:32:40.112Z,7.67
2019-03-11T07:35:09.068Z,7.53
2019-03-11T07:37:37.633Z,6.70
2019-03-11T07:40:11.293Z,7.43
2019-03-11T07:42:39.930Z,6.20
2019-03-11T07:45:10.735Z,6.17
2019-03-11T07:47:39.337Z,6.53
2019-03-11T07:50:12.280Z,6.23
2019-03-11T07:52:40.869Z,4.77
2019-03-11T07:55:13.944Z,5.80
2019-03-11T07:57:42.640Z,4.10
2019-03-11T08:00:13.689Z,4.67
2019-03-11T08:02:42.230Z,4.70
2019-03-11T08:05:10.907Z,5.70
2019-03-11T08:07:39.439Z,5.80
2019-03-11T08:10:11.032Z,4.80
2019-03-11T08:12:39.688Z,5.57
2019-03-11T08:15:11.355Z,4.50
2019-03-11T08:17:39.965Z,5.37
2019-03-11T08:20:13.217Z,4.20
2019-03-11T08:22:41.744Z,3.73
2019-03-11T08:25:11.850Z,3.00
2019-03-11T08:27:40.405Z,3.10
2019-03-11T08:30:22.517Z,3.70
2019-03-11T08:32:51.085Z,3.33
2019-03-11T08:35:19.694Z,3.33
2019-03-11T08:37:48.226Z,3.50
2019-03-11T08:40:17.967Z,3.60
2019-03-11T08:42:46.573Z,3.73
2019-03-11T08:45:16.453Z,4.17
2019-03-11T08:47:45.164Z,4.03
2019-03-11T08:50:14.946Z,4.10
2019-03-11T08:52:43.551Z,4.07
2019-03-11T08:55:12.262Z,3.37
2019-03-11T08:57:41.555Z,3.43
2019-03-11T09:00:19.249Z,4.20
2019-03-11T09:02:47.714Z,3.37
2019-03-11T09:05:16.516Z,4.03
2019-03-11T09:07:45.226Z,4.00
2019-03-11T09:10:17.818Z,4.10
2019-03-11T09:12:46.486Z,4.37
2019-03-11T09:15:16.564Z,5.30
2019-03-11T09:17:45.137Z,4.63
2019-03-11T09:20:14.812Z,4.40
2019-03-11T09:22:43.497Z,4.53
2019-03-11T09:25:17.497Z,4.83
2019-03-11T09:27:46.029Z,4.80
2019-03-11T09:30:19.452Z,5.73
2019-03-11T09:32:48.027Z,5.67
2019-03-11T09:35:17.007Z,5.60
2019-03-11T09:37:45.676Z,5.50
2019-03-11T09:40:18.821Z,6.57
2019-03-11T09:42:47.509Z,6.70
2019-03-11T09:45:16.993Z,6.80
2019-03-11T09:47:45.833Z,7.40
2019-03-11T09:50:15.220Z,7.60
2019-03-11T09:52:43.832Z,7.50
2019-03-11T09:55:15.109Z,8.00
2019-03-11T09:57:46.513Z,8.50
2019-03-11T10:00:20.612Z,9.87
2019-03-11T10:02:52.905Z,8.87
2019-03-11T10:05:19.549Z,9.50
2019-03-11T10:07:48.140Z,9.57
2019-03-11T10:10:19.168Z,10.07
2019-03-11T10:12:47.773Z,10.27
2019-03-11T10:15:20.785Z,9.93
2019-03-11T10:17:49.458Z,10.13
2019-03-11T10:20:21.168Z,9.40
2019-03-11T10:22:49.879Z,10.00
2019-03-11T10:25:19.557Z,9.93
2019-03-11T10:27:48.237Z,8.97
2019-03-11T10:30:20.904Z,9.40
2019-03-11T10:32:49.517Z,10.17
2019-03-11T10:35:31.248Z,8.67
2019-03-11T10:37:49.566Z,9.20
2019-03-11T10:40:20.710Z,8.63
2019-03-11T10:42:49.324Z,7.53
2019-03-11T10:45:26.535Z,7.13
2019-03-11T10:47:48.558Z,7.97
2019-03-11T10:50:18.362Z,6.70
2019-03-11T10:52:47.613Z,7.43
2019-03-11T10:55:17.595Z,8.50
2019-03-11T10:57:46.782Z,8.03
2019-03-11T11:00:25.617Z,12.00
2019-03-11T11:02:54.297Z,9.27
2019-03-11T11:05:22.917Z,10.07
2019-03-11T11:07:51.662Z,10.93
2019-03-11T11:10:20.489Z,9.33
2019-03-11T11:12:49.100Z,8.50
2019-03-11T11:15:25.265Z,9.20
2019-03-11T11:17:54.042Z,7.27
2019-03-11T11:20:23.452Z,8.70
2019-03-11T11:22:53.064Z,8.17
2019-03-11T11:25:22.906Z,7.07
2019-03-11T11:27:51.557Z,7.83
2019-03-11T11:30:26.650Z,8.07
2019-03-11T11:32:55.248Z,8.10
2019-03-11T11:35:23.780Z,7.70
2019-03-11T11:37:52.595Z,6.67
2019-03-11T11:40:23.134Z,10.17
2019-03-11T11:42:52.133Z,6.80
2019-03-11T11:45:25.017Z,7.10
2019-03-11T11:47:53.689Z,6.43
2019-03-11T11:50:24.258Z,6.70
2019-03-11T11:52:53.031Z,5.80
2019-03-11T11:55:22.393Z,6.53
2019-03-11T11:57:51.314Z,6.50
2019-03-11T12:00:29.526Z,6.57
2019-03-11T12:02:58.141Z,6.80
2019-03-11T12:05:26.681Z,7.27
2019-03-11T12:07:55.338Z,6.30
2019-03-11T12:10:31.095Z,6.80
2019-03-11T12:12:59.661Z,6.73
2019-03-11T12:15:28.196Z,6.60
2019-03-11T12:17:56.734Z,6.93
2019-03-11T12:20:31.788Z,7.60
2019-03-11T12:23:00.391Z,8.07
2019-03-11T12:25:29.065Z,7.53
2019-03-11T12:27:58.318Z,7.57
2019-03-11T12:30:31.047Z,7.60
2019-03-11T12:32:59.738Z,7.77
2019-03-11T12:35:28.578Z,8.10
2019-03-11T12:37:57.245Z,7.67
2019-03-11T12:40:25.918Z,7.73
2019-03-11T12:42:54.478Z,7.37
2019-03-11T12:45:24.250Z,7.13
2019-03-11T12:47:52.929Z,7.60
2019-03-11T12:50:33.736Z,8.67
2019-03-11T12:53:02.261Z,8.70
2019-03-11T12:55:30.763Z,7.07
2019-03-11T12:57:59.445Z,6.37
2019-03-11T13:00:28.058Z,6.07
2019-03-11T13:02:56.691Z,6.17
2019-03-11T13:05:25.238Z,5.97
2019-03-11T13:07:53.846Z,4.00
2019-03-11T13:10:32.825Z,3.43
2019-03-11T13:13:01.417Z,3.40
2019-03-11T13:15:30.002Z,3.43
2019-03-11T13:18:17.838Z,3.67
2019-03-11T13:20:46.450Z,3.40
2019-03-11T13:23:14.909Z,3.70
2019-03-11T13:25:43.550Z,2.73
2019-03-11T13:28:12.145Z,3.10
2019-03-11T13:30:40.680Z,3.47
2019-03-11T13:33:09.257Z,3.30
2019-03-11T13:35:37.793Z,3.50
2019-03-11T13:38:06.401Z,3.63
2019-03-11T13:40:35.077Z,4.37
2019-03-11T13:43:03.692Z,4.40
2019-03-11T13:45:32.449Z,4.73
2019-03-11T13:48:01.104Z,3.83
2019-03-11T13:50:29.714Z,4.50
2019-03-11T13:52:58.392Z,4.83
2019-03-11T13:55:26.998Z,4.93
2019-03-11T13:57:55.636Z,4.77
2019-03-11T14:00:24.153Z,3.20
2019-03-11T14:02:52.761Z,3.40
2019-03-11T14:05:21.439Z,2.80
2019-03-11T14:07:49.970Z,1.73
2019-03-11T14:10:18.580Z,1.80
2019-03-11T14:12:47.268Z,1.73
2019-03-11T14:15:17.751Z,2.00
2019-03-11T14:17:46.361Z,2.00
2019-03-11T14:20:15.931Z,2.10
2019-03-11T14:22:45.161Z,1.73
2019-03-11T14:25:14.441Z,2.53
2019-03-11T14:27:43.117Z,2.10
2019-03-11T14:30:13.918Z,1.97
2019-03-11T14:32:42.477Z,3.47
2019-03-11T14:35:12.252Z,3.23
2019-03-11T14:37:40.852Z,2.03
2019-03-11T14:40:20.342Z,3.60
2019-03-11T14:42:48.950Z,5.77
2019-03-11T14:45:18.815Z,13.10
2019-03-11T14:47:47.505Z,6.10
2019-03-11T14:50:16.914Z,8.60
2019-03-11T14:52:47.058Z,5.10
2019-03-11T14:55:16.182Z,2.23
2019-03-11T14:57:44.812Z,2.43
2019-03-11T15:00:20.774Z,2.60
2019-03-11T15:02:49.543Z,3.50
2019-03-11T15:05:18.986Z,2.80
2019-03-11T15:07:48.075Z,2.53
2019-03-11T15:10:17.916Z,3.13
2019-03-11T15:12:46.596Z,4.53
2019-03-11T15:15:19.409Z,3.73
2019-03-11T15:17:48.097Z,2.83
2019-03-11T15:20:16.770Z,2.90
2019-03-11T15:22:45.422Z,2.90
2019-03-11T15:25:15.303Z,2.60
2019-03-11T15:27:43.922Z,4.60
2019-03-11T15:30:19.855Z,3.23
2019-03-11T15:32:48.460Z,3.40
2019-03-11T15:35:17.130Z,4.83
2019-03-11T15:37:45.766Z,3.97
2019-03-11T15:40:15.501Z,5.67
2019-03-11T15:42:44.047Z,7.20
2019-03-11T15:45:16.384Z,6.87
2019-03-11T15:47:44.967Z,8.13
2019-03-11T15:50:16.538Z,9.23
2019-03-11T15:52:45.121Z,8.97
2019-03-11T15:55:15.302Z,8.47
2019-03-11T15:57:44.514Z,6.13
2019-03-11T16:00:16.129Z,6.33
2019-03-11T16:02:44.856Z,9.33
2019-03-11T16:05:14.018Z,14.30
2019-03-11T16:07:42.561Z,9.97
2019-03-11T16:10:17.077Z,10.70
2019-03-11T16:12:43.532Z,12.87
2019-03-11T16:15:12.845Z,12.83
2019-03-11T16:17:41.462Z,18.17
2019-03-11T16:20:13.104Z,16.47
2019-03-11T16:22:41.714Z,11.27
2019-03-11T16:25:11.493Z,12.70
2019-03-11T16:27:40.130Z,10.50
2019-03-11T16:30:22.059Z,12.63
2019-03-11T16:33:00.214Z,10.20
2019-03-11T16:35:22.567Z,9.70
2019-03-11T16:37:51.178Z,12.03
2019-03-11T16:40:20.187Z,16.00
2019-03-11T16:42:48.928Z,11.50
2019-03-11T16:45:18.800Z,12.17
2019-03-11T16:47:48.314Z,8.97
2019-03-11T16:50:18.355Z,10.90
2019-03-11T16:52:47.001Z,13.83
2019-03-11T16:55:19.817Z,23.40
2019-03-11T16:57:48.422Z,25.30
2019-03-11T17:00:30.935Z,24.73
2019-03-11T17:02:59.537Z,16.53
2019-03-11T17:05:28.077Z,19.97
2019-03-11T17:07:56.708Z,20.17
2019-03-11T17:10:25.393Z,22.17
2019-03-11T17:12:54.071Z,17.43
2019-03-11T17:15:22.708Z,18.43
2019-03-11T17:17:51.320Z,14.30
2019-03-11T17:20:20.603Z,19.40
2019-03-11T17:22:49.316Z,13.87
2019-03-11T17:25:17.855Z,13.63
2019-03-11T17:27:46.530Z,11.67
2019-03-11T17:30:22.025Z,11.73
2019-03-11T17:32:50.587Z,9.33
2019-03-11T17:35:19.340Z,7.17
2019-03-11T17:37:47.984Z,6.20
2019-03-11T17:40:23.692Z,5.93
2019-03-11T17:42:52.561Z,5.37
2019-03-11T17:45:21.289Z,6.23
2019-03-11T17:47:50.300Z,8.45
2019-03-11T17:50:19.734Z,7.27
2019-03-11T17:52:48.617Z,6.93
2019-03-11T17:55:18.392Z,7.80
2019-03-11T17:57:47.129Z,9.50
2019-03-11T18:00:25.501Z,7.70
2019-03-11T18:02:54.982Z,9.40
2019-03-11T18:05:23.762Z,10.90
2019-03-11T18:07:52.365Z,9.27
2019-03-11T18:10:21.005Z,11.50
2019-03-11T18:12:49.715Z,12.97
2019-03-11T18:15:18.394Z,10.23
2019-03-11T18:17:48.574Z,10.07
2019-03-11T18:20:18.045Z,9.43
2019-03-11T18:22:46.830Z,9.57
2019-03-11T18:25:21.537Z,9.97
2019-03-11T18:27:50.232Z,11.00
2019-03-11T18:30:25.309Z,10.27
2019-03-11T18:32:53.931Z,10.10
2019-03-11T18:35:22.607Z,11.00
2019-03-11T18:38:02.862Z,11.43
2019-03-11T18:40:21.654Z,10.83
2019-03-11T18:42:50.280Z,11.50
2019-03-11T18:45:18.979Z,12.50
2019-03-11T18:47:47.651Z,12.73
2019-03-11T18:50:22.037Z,12.87
2019-03-11T18:52:50.631Z,12.97
2019-03-11T18:55:19.297Z,12.47
2019-03-11T18:57:47.977Z,12.73
2019-03-11T19:00:23.452Z,13.20
2019-03-11T19:02:52.058Z,12.73
2019-03-11T19:05:22.037Z,13.07
2019-03-11T19:07:50.779Z,13.13
2019-03-11T19:10:19.427Z,12.73
2019-03-11T19:12:48.125Z,12.90
2019-03-11T19:15:18.296Z,13.27
2019-03-11T19:17:47.112Z,12.80
2019-03-11T19:20:19.846Z,14.33
2019-03-11T19:22:48.543Z,13.73
2019-03-11T19:25:17.589Z,14.50
2019-03-11T19:27:46.334Z,14.10
2019-03-11T19:30:17.628Z,16.63
2019-03-11T19:32:46.411Z,15.57
2019-03-11T19:35:15.630Z,15.00
2019-03-11T19:37:44.306Z,15.00
2019-03-11T19:40:15.661Z,14.60
2019-03-11T19:42:44.199Z,15.33
2019-03-11T19:45:14.220Z,15.53
2019-03-11T19:47:42.916Z,15.93
2019-03-11T19:50:16.436Z,17.50
2019-03-11T19:52:57.258Z,16.80
2019-03-11T19:55:15.509Z,17.20
2019-03-11T19:57:44.206Z,18.80
2019-03-11T20:00:22.406Z,17.87
2019-03-11T20:02:51.101Z,17.20
2019-03-11T20:05:33.245Z,18.70
2019-03-11T20:08:01.848Z,18.47
2019-03-11T20:10:30.555Z,21.67
2019-03-11T20:12:59.214Z,20.93
2019-03-11T20:15:27.837Z,20.80
2019-03-11T20:17:56.464Z,18.23
2019-03-11T20:20:25.941Z,17.40
2019-03-11T20:22:54.551Z,17.73
2019-03-11T20:25:31.239Z,18.47
2019-03-11T20:28:00.153Z,17.63
2019-03-11T20:30:28.842Z,18.97
2019-03-11T20:32:57.602Z,19.33
2019-03-11T20:35:26.280Z,18.90
2019-03-11T20:37:54.822Z,19.93
2019-03-11T20:40:23.424Z,19.97
2019-03-11T20:42:53.797Z,18.13
2019-03-11T20:45:23.277Z,18.90
2019-03-11T20:47:52.672Z,16.93
2019-03-11T20:50:21.388Z,16.17
2019-03-11T20:52:51.357Z,15.73
2019-03-11T20:55:20.362Z,17.17
2019-03-11T20:57:49.089Z,17.53
2019-03-11T21:00:19.605Z,15.40
2019-03-11T21:02:48.636Z,17.70
2019-03-11T21:05:31.413Z,17.37
2019-03-11T21:08:00.002Z,17.00
2019-03-11T21:10:28.629Z,18.47
2019-03-11T21:12:57.489Z,20.40
2019-03-11T21:15:26.186Z,20.27
2019-03-11T21:17:54.829Z,18.43
2019-03-11T21:20:23.484Z,19.10
2019-03-11T21:22:52.776Z,20.20
2019-03-11T21:25:25.230Z,20.60
2019-03-11T21:27:53.932Z,18.93
2019-03-11T21:30:26.179Z,17.80
2019-03-11T21:32:54.854Z,17.47
2019-03-11T21:35:24.844Z,17.50
2019-03-11T21:37:53.487Z,17.27
2019-03-11T21:40:25.246Z,17.17
2019-03-11T21:42:53.939Z,16.50
2019-03-11T21:45:33.365Z,16.23
2019-03-11T21:47:53.669Z,15.37
2019-03-11T21:50:26.866Z,14.80
2019-03-11T21:52:55.498Z,15.80
2019-03-11T21:55:24.115Z,17.47
2019-03-11T21:57:52.650Z,18.43
2019-03-11T22:00:33.861Z,18.13
2019-03-11T22:02:55.106Z,18.93
2019-03-11T22:05:23.790Z,18.43
2019-03-11T22:07:52.502Z,18.10
2019-03-11T22:10:22.539Z,17.27
2019-03-11T22:12:51.228Z,16.87
2019-03-11T22:15:24.829Z,17.10
2019-03-11T22:17:53.307Z,17.10
2019-03-11T22:20:22.090Z,18.23
2019-03-11T22:22:50.804Z,18.93
2019-03-11T22:25:20.415Z,18.10
2019-03-11T22:27:49.098Z,16.77
2019-03-11T22:30:19.988Z,16.20
2019-03-11T22:32:48.732Z,16.60
2019-03-11T22:35:17.545Z,16.40
2019-03-11T22:37:46.170Z,16.03
2019-03-11T22:40:16.254Z,15.17
2019-03-11T22:42:45.181Z,13.67
2019-03-11T22:45:18.363Z,15.23
2019-03-11T22:47:47.048Z,13.90
2019-03-11T22:50:17.867Z,14.17
2019-03-11T22:52:46.013Z,15.80
2019-03-11T22:55:14.816Z,16.97
2019-03-11T22:57:43.325Z,14.97
2019-03-11T23:00:15.009Z,15.27
2019-03-11T23:02:44.280Z,15.70
2019-03-11T23:05:12.983Z,17.63
2019-03-11T23:07:41.572Z,16.30
2019-03-11T23:10:10.236Z,16.47
2019-03-11T23:12:38.889Z,19.83
2019-03-11T23:15:08.904Z,16.50
2019-03-11T23:17:37.552Z,15.30
2019-03-11T23:20:08.025Z,18.43
2019-03-11T23:22:36.561Z,16.33
2019-03-11T23:25:08.112Z,17.03
2019-03-11T23:27:36.650Z,17.43
2019-03-11T23:30:08.230Z,19.53
2019-03-11T23:32:36.796Z,17.97
2019-03-11T23:35:06.479Z,20.07
2019-03-11T23:37:35.026Z,18.83
2019-03-11T23:40:04.430Z,22.67
2019-03-11T23:42:33.042Z,28.73
2019-03-11T23:45:01.592Z,18.23
2019-03-11T23:47:30.405Z,18.00
2019-03-11T23:49:58.873Z,18.40
2019-03-11T23:52:27.421Z,17.33
2019-03-11T23:54:55.989Z,17.17
2019-03-11T23:57:24.457Z,17.97
2019-03-11T23:59:52.925Z,18.63
